createdAt,value
2019-01-18T00:00:13.349Z,13.47
2019-01-18T00:02:42.139Z,16.07
2019-01-18T00:05:11.133Z,13.60
2019-01-18T00:07:40.022Z,13.67
2019-01-18T00:10:10.347Z,14.63
2019-01-18T00:12:39.132Z,14.33
2019-01-18T00:15:10.317Z,14.63
2019-01-18T00:17:39.058Z,14.00
2019-01-18T00:20:13.382Z,14.53
2019-01-18T00:22:42.274Z,13.60
2019-01-18T00:25:11.059Z,14.57
2019-01-18T00:27:39.792Z,13.77
2019-01-18T00:30:17.234Z,13.90
2019-01-18T00:32:46.024Z,14.27
2019-01-18T00:35:14.915Z,13.37
2019-01-18T00:37:44.029Z,13.37
2019-01-18T00:40:18.123Z,12.67
2019-01-18T00:42:46.861Z,12.63
2019-01-18T00:45:17.756Z,11.30
2019-01-18T00:47:46.536Z,12.40
2019-01-18T00:50:17.577Z,12.40
2019-01-18T00:52:46.468Z,11.30
2019-01-18T00:55:15.361Z,12.27
2019-01-18T00:57:44.455Z,13.23
2019-01-18T01:00:25.120Z,12.30
2019-01-18T01:02:54.214Z,12.93
2019-01-18T01:05:23.997Z,11.93
2019-01-18T01:07:53.022Z,11.90
2019-01-18T01:10:21.809Z,11.50
2019-01-18T01:12:50.547Z,11.63
2019-01-18T01:15:22.939Z,11.60
2019-01-18T01:17:51.756Z,10.53
2019-01-18T01:20:22.188Z,10.47
2019-01-18T01:22:51.995Z,10.77
2019-01-18T01:25:20.928Z,10.17
2019-01-18T01:27:50.086Z,10.03
2019-01-18T01:30:21.562Z,10.80
2019-01-18T01:32:50.605Z,10.67
2019-01-18T01:35:19.724Z,10.47
2019-01-18T01:37:48.923Z,10.60
2019-01-18T01:40:20.358Z,11.37
2019-01-18T01:42:49.162Z,10.80
2019-01-18T01:45:18.443Z,10.67
2019-01-18T01:47:47.249Z,10.47
2019-01-18T01:50:18.885Z,10.13
2019-01-18T01:52:48.099Z,9.90
2019-01-18T01:55:16.847Z,8.90
2019-01-18T01:57:45.677Z,9.07
2019-01-18T02:00:19.954Z,8.13
2019-01-18T02:02:48.784Z,8.43
2019-01-18T02:05:17.774Z,8.37
2019-01-18T02:07:46.872Z,8.53
2019-01-18T02:10:17.973Z,8.83
2019-01-18T02:12:46.905Z,8.47
2019-01-18T02:15:17.993Z,8.43
2019-01-18T02:17:46.843Z,8.20
2019-01-18T02:20:17.782Z,7.83
2019-01-18T02:22:46.963Z,9.00
2019-01-18T02:25:15.860Z,9.00
2019-01-18T02:27:45.402Z,7.97
2019-01-18T02:30:26.185Z,8.40
2019-01-18T02:32:55.130Z,8.47
2019-01-18T02:35:24.121Z,7.30
2019-01-18T02:37:53.237Z,8.57
2019-01-18T02:40:22.111Z,7.90
2019-01-18T02:42:50.895Z,8.60
2019-01-18T02:45:21.752Z,8.43
2019-01-18T02:47:50.520Z,8.10
2019-01-18T02:50:19.562Z,8.50
2019-01-18T02:52:48.400Z,8.57
2019-01-18T02:55:17.610Z,8.50
2019-01-18T02:57:46.387Z,8.40
2019-01-18T03:00:20.296Z,9.13
2019-01-18T03:02:49.392Z,8.57
2019-01-18T03:05:21.355Z,8.77
2019-01-18T03:07:50.460Z,9.10
2019-01-18T03:10:22.210Z,10.03
2019-01-18T03:12:51.020Z,8.73
2019-01-18T03:15:20.026Z,9.03
2019-01-18T03:17:48.779Z,8.57
2019-01-18T03:20:20.064Z,9.73
2019-01-18T03:22:48.915Z,9.67
2019-01-18T03:25:20.349Z,9.83
2019-01-18T03:27:49.081Z,8.90
2019-01-18T03:30:20.611Z,9.27
2019-01-18T03:32:49.825Z,10.40
2019-01-18T03:35:20.442Z,10.13
2019-01-18T03:37:49.427Z,9.60
2019-01-18T03:40:20.177Z,9.80
2019-01-18T03:42:49.510Z,11.57
2019-01-18T03:45:19.958Z,9.90
2019-01-18T03:47:48.921Z,9.93
2019-01-18T03:50:22.660Z,9.90
2019-01-18T03:52:51.472Z,10.13
2019-01-18T03:55:20.365Z,10.10
2019-01-18T03:57:49.159Z,10.33
2019-01-18T04:00:26.327Z,11.10
2019-01-18T04:02:54.503Z,11.43
2019-01-18T04:05:23.506Z,10.57
2019-01-18T04:07:52.395Z,11.33
2019-01-18T04:10:22.313Z,11.13
2019-01-18T04:12:51.405Z,12.30
2019-01-18T04:15:23.064Z,12.57
2019-01-18T04:17:52.050Z,17.07
2019-01-18T04:20:21.994Z,15.50
2019-01-18T04:22:50.878Z,15.70
2019-01-18T04:25:24.358Z,15.03
2019-01-18T04:27:53.149Z,13.90
2019-01-18T04:30:23.411Z,13.80
2019-01-18T04:32:52.461Z,14.83
2019-01-18T04:35:21.205Z,14.97
2019-01-18T04:37:50.045Z,14.17
2019-01-18T04:40:24.151Z,15.53
2019-01-18T04:42:52.939Z,13.73
2019-01-18T04:45:22.135Z,14.80
2019-01-18T04:47:51.027Z,14.33
2019-01-18T04:50:22.209Z,15.73
2019-01-18T04:52:51.069Z,15.83
2019-01-18T04:55:19.846Z,13.43
2019-01-18T04:57:48.639Z,14.90
2019-01-18T05:00:23.057Z,14.10
2019-01-18T05:02:51.810Z,67.73
2019-01-18T05:05:21.058Z,48.10
2019-01-18T05:07:49.946Z,46.30
2019-01-18T05:10:27.528Z,115.80
2019-01-18T05:12:56.520Z,50.17
2019-01-18T05:15:30.835Z,43.47
2019-01-18T05:17:59.736Z,28.43
2019-01-18T05:20:28.720Z,27.43
2019-01-18T05:22:57.614Z,31.97
2019-01-18T05:25:26.399Z,25.67
2019-01-18T05:27:55.290Z,25.73
2019-01-18T05:30:26.228Z,26.10
2019-01-18T05:32:55.077Z,24.63
2019-01-18T05:35:24.185Z,24.93
2019-01-18T05:37:53.105Z,27.53
2019-01-18T05:40:23.160Z,30.93
2019-01-18T05:42:52.527Z,38.07
2019-01-18T05:45:22.794Z,37.67
2019-01-18T05:47:52.034Z,34.10
2019-01-18T05:50:23.736Z,32.80
2019-01-18T05:52:52.500Z,32.27
2019-01-18T05:55:21.379Z,32.33
2019-01-18T05:57:50.380Z,32.33
2019-01-18T06:00:29.187Z,35.60
2019-01-18T06:02:58.398Z,33.30
2019-01-18T06:05:28.036Z,35.60
2019-01-18T06:07:56.893Z,31.73
2019-01-18T06:10:25.682Z,34.13
2019-01-18T06:12:54.471Z,37.50
2019-01-18T06:15:23.218Z,36.47
2019-01-18T06:17:52.351Z,34.37
2019-01-18T06:20:21.348Z,34.17
2019-01-18T06:22:50.129Z,37.73
2019-01-18T06:25:20.767Z,63.87
2019-01-18T06:27:49.659Z,47.87
2019-01-18T06:30:19.900Z,56.10
2019-01-18T06:32:48.767Z,46.47
2019-01-18T06:35:17.904Z,48.83
2019-01-18T06:37:46.640Z,49.73
2019-01-18T06:40:20.663Z,53.03
2019-01-18T06:42:49.399Z,55.77
2019-01-18T06:45:21.103Z,51.87
2019-01-18T06:47:50.094Z,48.47
2019-01-18T06:50:20.032Z,48.83
2019-01-18T06:52:48.795Z,52.97
2019-01-18T06:55:17.739Z,63.20
2019-01-18T06:57:46.469Z,66.67
2019-01-18T07:00:20.997Z,79.47
2019-01-18T07:02:50.606Z,67.37
2019-01-18T07:05:19.496Z,77.77
2019-01-18T07:07:48.537Z,73.23
2019-01-18T07:10:20.908Z,81.20
2019-01-18T07:12:49.959Z,79.17
2019-01-18T07:15:19.109Z,64.97
2019-01-18T07:17:47.947Z,71.17
2019-01-18T07:20:19.130Z,59.70
2019-01-18T07:22:48.406Z,58.83
2019-01-18T07:25:25.466Z,46.87
2019-01-18T07:27:54.257Z,46.20
2019-01-18T07:30:28.269Z,47.63
2019-01-18T07:32:58.812Z,58.63
2019-01-18T07:35:27.585Z,46.70
2019-01-18T07:37:56.375Z,47.17
2019-01-18T07:40:26.200Z,54.27
2019-01-18T07:42:55.079Z,40.20
2019-01-18T07:45:26.388Z,44.07
2019-01-18T07:47:55.211Z,41.43
2019-01-18T07:50:24.644Z,40.73
2019-01-18T07:52:53.914Z,43.47
2019-01-18T07:55:23.012Z,37.80
2019-01-18T07:57:51.770Z,41.83
2019-01-18T08:00:23.112Z,35.47
2019-01-18T08:02:52.143Z,38.90
2019-01-18T08:05:22.082Z,43.93
2019-01-18T08:07:51.032Z,45.30
2019-01-18T08:10:24.462Z,40.33
2019-01-18T08:12:53.443Z,35.03
2019-01-18T08:15:24.578Z,36.33
2019-01-18T08:17:53.361Z,35.00
2019-01-18T08:20:23.999Z,33.70
2019-01-18T08:22:52.894Z,34.20
2019-01-18T08:25:21.951Z,29.67
2019-01-18T08:27:50.681Z,28.77
2019-01-18T08:30:24.330Z,28.77
2019-01-18T08:32:53.162Z,33.10
2019-01-18T08:35:22.904Z,22.33
2019-01-18T08:37:51.773Z,29.63
2019-01-18T08:40:29.767Z,62.27
2019-01-18T08:42:58.522Z,143.67
2019-01-18T08:45:30.216Z,142.47
2019-01-18T08:47:59.122Z,144.90
2019-01-18T08:50:27.892Z,149.70
2019-01-18T08:52:56.742Z,195.47
2019-01-18T08:55:25.676Z,164.60
2019-01-18T08:57:54.417Z,147.90
2019-01-18T09:00:28.764Z,138.10
2019-01-18T09:02:57.774Z,140.63
2019-01-18T09:05:27.729Z,116.77
2019-01-18T09:07:56.578Z,110.27
2019-01-18T09:10:31.323Z,116.30
2019-01-18T09:13:00.230Z,124.50
2019-01-18T09:15:28.981Z,121.23
2019-01-18T09:17:57.976Z,120.57
2019-01-18T09:20:28.823Z,135.93
2019-01-18T09:22:57.605Z,141.60
2019-01-18T09:25:26.797Z,136.03
2019-01-18T09:27:55.825Z,138.57
2019-01-18T09:30:26.783Z,115.57
2019-01-18T09:32:55.676Z,121.97
2019-01-18T09:35:25.739Z,116.77
2019-01-18T09:37:55.876Z,114.03
2019-01-18T09:40:27.322Z,108.70
2019-01-18T09:42:56.058Z,21.53
2019-01-18T09:45:24.891Z,20.33
2019-01-18T09:47:53.785Z,19.53
2019-01-18T09:50:24.926Z,14.23
2019-01-18T09:52:54.022Z,16.17
2019-01-18T09:55:22.905Z,10.93
2019-01-18T09:57:51.690Z,9.57
2019-01-18T10:00:26.172Z,10.77
2019-01-18T10:02:55.107Z,10.30
2019-01-18T10:05:23.998Z,11.07
2019-01-18T10:07:52.784Z,10.03
2019-01-18T10:10:23.291Z,5.93
2019-01-18T10:12:52.400Z,8.47
2019-01-18T10:15:33.175Z,8.40
2019-01-18T10:18:01.963Z,7.50
2019-01-18T10:20:30.702Z,8.67
2019-01-18T10:22:59.872Z,6.30
2019-01-18T10:25:28.638Z,5.70
2019-01-18T10:27:57.441Z,6.67
2019-01-18T10:30:29.696Z,6.70
2019-01-18T10:32:58.483Z,14.50
2019-01-18T10:35:28.124Z,9.17
2019-01-18T10:37:57.394Z,10.63
2019-01-18T10:40:26.181Z,7.87
2019-01-18T10:42:55.633Z,7.87
2019-01-18T10:45:25.187Z,7.00
2019-01-18T10:47:53.996Z,8.00
2019-01-18T10:50:25.244Z,7.97
2019-01-18T10:52:54.115Z,10.07
2019-01-18T10:55:22.902Z,9.40
2019-01-18T10:57:51.660Z,8.77
2019-01-18T11:00:23.362Z,7.10
2019-01-18T11:02:52.791Z,6.47
2019-01-18T11:05:22.634Z,6.50
2019-01-18T11:07:51.653Z,6.43
2019-01-18T11:10:20.597Z,7.00
2019-01-18T11:12:49.639Z,7.60
2019-01-18T11:15:22.530Z,7.37
2019-01-18T11:17:51.313Z,8.37
2019-01-18T11:20:26.068Z,7.70
2019-01-18T11:22:56.401Z,5.40
2019-01-18T11:25:31.573Z,5.73
2019-01-18T11:27:56.192Z,6.10
2019-01-18T11:30:24.929Z,6.90
2019-01-18T11:32:53.769Z,8.17
2019-01-18T11:35:22.659Z,6.43
2019-01-18T11:37:51.596Z,6.63
2019-01-18T11:40:22.235Z,9.83
2019-01-18T11:42:51.316Z,6.03
2019-01-18T11:45:20.560Z,7.60
2019-01-18T11:47:49.572Z,6.03
2019-01-18T11:50:24.336Z,6.47
2019-01-18T11:52:53.306Z,6.73
2019-01-18T11:55:22.084Z,7.73
2019-01-18T11:57:50.933Z,7.30
2019-01-18T12:00:25.387Z,6.83
2019-01-18T12:02:54.223Z,7.10
2019-01-18T12:05:23.276Z,8.73
2019-01-18T12:07:52.065Z,6.67
2019-01-18T12:10:29.003Z,7.17
2019-01-18T12:12:57.833Z,7.70
2019-01-18T12:15:26.902Z,7.93
2019-01-18T12:17:56.122Z,7.70
2019-01-18T12:20:27.574Z,6.83
2019-01-18T12:22:56.416Z,8.70
2019-01-18T12:25:25.870Z,8.30
2019-01-18T12:27:54.862Z,8.63
2019-01-18T12:30:32.060Z,7.17
2019-01-18T12:33:00.845Z,7.10
2019-01-18T12:35:29.858Z,7.20
2019-01-18T12:37:58.717Z,6.60
2019-01-18T12:40:27.510Z,7.93
2019-01-18T12:42:57.858Z,9.60
2019-01-18T12:45:27.440Z,10.27
2019-01-18T12:47:56.188Z,13.50
2019-01-18T12:50:31.023Z,14.77
2019-01-18T12:53:00.074Z,14.40
2019-01-18T12:55:28.825Z,12.83
2019-01-18T12:57:57.571Z,15.60
2019-01-18T13:00:28.263Z,14.00
2019-01-18T13:02:57.404Z,14.00
2019-01-18T13:05:28.941Z,17.07
2019-01-18T13:07:57.754Z,20.43
2019-01-18T13:10:26.492Z,26.30
2019-01-18T13:12:55.275Z,26.77
2019-01-18T13:15:30.309Z,23.50
2019-01-18T13:18:00.426Z,21.80
2019-01-18T13:20:29.213Z,22.83
2019-01-18T13:22:58.118Z,23.20
2019-01-18T13:25:26.851Z,21.20
2019-01-18T13:27:59.749Z,20.77
2019-01-18T13:30:26.209Z,21.77
2019-01-18T13:32:54.997Z,21.47
2019-01-18T13:35:23.755Z,21.90
2019-01-18T13:37:52.802Z,22.90
2019-01-18T13:40:22.795Z,21.20
2019-01-18T13:42:51.584Z,21.07
2019-01-18T13:45:24.419Z,22.27
2019-01-18T13:47:51.251Z,23.37
2019-01-18T13:50:20.697Z,20.40
2019-01-18T13:52:49.604Z,20.00
2019-01-18T13:55:21.293Z,19.17
2019-01-18T13:57:50.048Z,19.87
2019-01-18T14:00:18.937Z,20.50
2019-01-18T14:02:48.581Z,20.50
2019-01-18T14:05:17.643Z,20.00
2019-01-18T14:07:46.534Z,19.70
2019-01-18T14:10:20.682Z,20.83
2019-01-18T14:12:49.533Z,23.57
2019-01-18T14:15:22.993Z,26.37
2019-01-18T14:17:52.032Z,25.50
2019-01-18T14:20:28.493Z,22.37
2019-01-18T14:22:57.492Z,21.90
2019-01-18T14:25:26.276Z,22.53
2019-01-18T14:27:55.476Z,22.53
2019-01-18T14:30:26.214Z,22.17
2019-01-18T14:32:56.015Z,23.27
2019-01-18T14:35:25.474Z,21.80
2019-01-18T14:37:54.435Z,22.00
2019-01-18T14:40:23.240Z,21.80
2019-01-18T14:42:53.530Z,25.90
2019-01-18T14:45:31.432Z,24.43
2019-01-18T14:48:00.304Z,21.77
2019-01-18T14:50:29.045Z,19.93
2019-01-18T14:52:57.801Z,18.50
2019-01-18T14:55:26.710Z,21.07
2019-01-18T14:57:55.780Z,20.03
2019-01-18T15:00:31.380Z,20.43
2019-01-18T15:03:02.518Z,20.93
2019-01-18T15:05:30.888Z,22.87
2019-01-18T15:07:59.945Z,28.47
2019-01-18T15:10:28.840Z,28.10
2019-01-18T15:13:06.122Z,30.43
2019-01-18T15:15:35.054Z,33.43
2019-01-18T15:18:04.110Z,33.57
2019-01-18T15:20:33.901Z,38.03
2019-01-18T15:23:02.716Z,43.03
2019-01-18T15:25:31.496Z,47.93
2019-01-18T15:28:01.041Z,46.03
2019-01-18T15:30:31.913Z,44.40
2019-01-18T15:33:00.900Z,44.13
2019-01-18T15:35:32.281Z,45.73
2019-01-18T15:38:01.030Z,44.23
2019-01-18T15:40:32.771Z,41.17
2019-01-18T15:43:02.111Z,40.40
2019-01-18T15:45:31.032Z,37.53
2019-01-18T15:47:59.971Z,34.30
2019-01-18T15:50:34.135Z,36.17
2019-01-18T15:53:03.017Z,36.53
2019-01-18T15:55:31.804Z,40.87
2019-01-18T15:58:00.694Z,37.87
2019-01-18T16:00:34.704Z,42.10
2019-01-18T16:03:03.437Z,44.47
2019-01-18T16:05:32.519Z,39.47
2019-01-18T16:08:01.272Z,38.77
2019-01-18T16:10:30.062Z,43.33
2019-01-18T16:12:59.172Z,49.73
2019-01-18T16:15:34.195Z,48.17
2019-01-18T16:18:04.625Z,46.80
2019-01-18T16:20:33.410Z,43.90
2019-01-18T16:23:02.152Z,42.97
2019-01-18T16:25:31.051Z,47.27
2019-01-18T16:27:59.874Z,47.77
2019-01-18T16:30:28.611Z,49.80
2019-01-18T16:32:58.274Z,50.53
2019-01-18T16:35:27.576Z,50.93
2019-01-18T16:37:56.605Z,42.60
2019-01-18T16:40:28.216Z,40.37
2019-01-18T16:43:00.083Z,39.37
2019-01-18T16:45:28.896Z,40.13
2019-01-18T16:47:57.758Z,36.40
2019-01-18T16:50:26.545Z,31.77
2019-01-18T16:52:55.538Z,31.43
2019-01-18T16:55:24.329Z,30.90
2019-01-18T16:57:53.113Z,31.67
2019-01-18T17:00:25.247Z,29.87
2019-01-18T17:02:54.275Z,29.13
2019-01-18T17:05:23.016Z,25.37
2019-01-18T17:07:51.748Z,25.47
2019-01-18T17:10:20.648Z,23.77
2019-01-18T17:12:49.391Z,20.93
2019-01-18T17:15:18.215Z,16.33
2019-01-18T17:17:47.214Z,16.50
2019-01-18T17:20:24.397Z,17.23
2019-01-18T17:22:53.187Z,15.77
2019-01-18T17:25:21.972Z,17.07
2019-01-18T17:27:50.710Z,21.77
2019-01-18T17:30:23.234Z,18.57
2019-01-18T17:32:51.973Z,17.93
2019-01-18T17:35:32.586Z,15.20
2019-01-18T17:38:16.494Z,14.30
2019-01-18T17:40:51.566Z,13.47
2019-01-18T17:43:39.951Z,13.27
2019-01-18T17:46:17.934Z,13.27
2019-01-18T17:49:04.936Z,14.40
2019-01-18T17:51:49.431Z,13.10
2019-01-18T17:54:23.808Z,14.17
2019-01-18T17:56:58.587Z,18.97
2019-01-18T17:59:51.055Z,18.70
2019-01-18T18:02:34.454Z,19.27
2019-01-18T18:05:15.292Z,19.27
2019-01-18T18:08:23.622Z,19.10
2019-01-18T18:11:05.083Z,17.57
2019-01-18T18:14:01.721Z,17.90
2019-01-18T18:16:33.478Z,20.87
2019-01-18T18:19:17.541Z,22.97
2019-01-18T18:21:51.844Z,21.57
2019-01-18T18:24:38.962Z,26.83
2019-01-18T18:27:22.594Z,19.40
2019-01-18T18:30:00.258Z,22.60
2019-01-18T18:32:44.135Z,21.50
2019-01-18T18:35:22.036Z,20.60
2019-01-18T18:37:53.693Z,21.73
2019-01-18T18:40:31.594Z,19.60
2019-01-18T18:43:03.355Z,18.77
2019-01-18T18:45:53.562Z,20.93
2019-01-18T18:48:34.311Z,19.43
2019-01-18T18:51:27.398Z,19.67
2019-01-18T18:54:21.682Z,20.17
2019-01-18T18:57:02.137Z,19.97
2019-01-18T18:59:42.586Z,18.93
2019-01-18T19:02:20.114Z,17.33
2019-01-18T19:04:54.762Z,18.90
2019-01-18T19:07:43.019Z,19.70
2019-01-18T19:10:26.474Z,20.40
2019-01-18T19:13:23.765Z,20.50
2019-01-18T19:16:01.888Z,21.87
2019-01-18T19:18:39.652Z,20.17
2019-01-18T19:21:23.578Z,19.30
2019-01-18T19:24:10.718Z,17.63
2019-01-18T19:27:15.536Z,18.13
2019-01-18T19:29:53.125Z,18.27
2019-01-18T19:32:33.687Z,16.13
2019-01-18T19:35:28.387Z,14.93
2019-01-18T19:38:18.084Z,13.93
2019-01-18T19:41:10.606Z,13.80
2019-01-18T19:43:54.581Z,13.03
2019-01-18T19:46:42.793Z,16.13
2019-01-18T19:49:34.007Z,15.30
2019-01-18T19:52:11.709Z,16.53
2019-01-18T19:54:55.145Z,16.27
2019-01-18T19:57:41.845Z,15.70
2019-01-18T20:00:25.584Z,17.93
2019-01-18T20:03:03.383Z,17.87
2019-01-18T20:05:44.359Z,15.37
2019-01-18T20:08:22.053Z,16.63
2019-01-18T20:11:02.415Z,16.10
2019-01-18T20:13:57.314Z,14.23
2019-01-18T20:16:47.105Z,13.63
2019-01-18T20:19:27.869Z,12.60
2019-01-18T20:22:02.488Z,13.00
2019-01-18T20:25:07.388Z,12.17
2019-01-18T20:27:48.186Z,10.77
2019-01-18T20:30:22.713Z,10.15
2019-01-18T20:32:57.220Z,10.87
2019-01-18T20:35:41.005Z,11.43
2019-01-18T20:38:30.395Z,11.60
2019-01-18T20:41:21.509Z,11.07
2019-01-18T20:44:04.994Z,10.47
2019-01-18T20:46:55.105Z,11.17
2019-01-18T20:49:29.576Z,11.37
2019-01-18T20:52:03.905Z,10.83
2019-01-18T20:54:38.262Z,11.50
2019-01-18T20:57:21.883Z,12.37
2019-01-18T20:59:59.162Z,12.80
2019-01-18T21:02:55.084Z,12.17
2019-01-18T21:05:29.686Z,11.67
2019-01-18T21:08:07.208Z,12.90
2019-01-18T21:10:53.508Z,12.30
2019-01-18T21:13:28.435Z,12.63
2019-01-18T21:16:19.546Z,13.57
2019-01-18T21:19:17.298Z,14.70
2019-01-18T21:22:15.183Z,15.50
2019-01-18T21:24:56.060Z,17.03
2019-01-18T21:27:42.966Z,13.60
2019-01-18T21:30:29.700Z,13.90
2019-01-18T21:33:19.187Z,11.37
2019-01-18T21:35:54.004Z,12.37
2019-01-18T21:38:25.737Z,10.53
2019-01-18T21:41:00.769Z,10.33
2019-01-18T21:43:53.012Z,9.50
2019-01-18T21:46:27.783Z,10.00
2019-01-18T21:49:05.171Z,8.30
2019-01-18T21:51:53.783Z,10.17
2019-01-18T21:54:42.228Z,9.20
2019-01-18T21:57:30.576Z,10.17
2019-01-18T22:00:18.738Z,7.67
2019-01-18T22:02:59.830Z,7.97
2019-01-18T22:05:37.204Z,8.27
2019-01-18T22:08:29.979Z,8.53
2019-01-18T22:11:07.733Z,7.10
2019-01-18T22:13:48.465Z,7.60
2019-01-18T22:16:39.719Z,7.40
2019-01-18T22:19:32.769Z,6.23
2019-01-18T22:22:10.569Z,6.73
2019-01-18T22:25:09.770Z,7.20
2019-01-18T22:27:44.398Z,6.83
2019-01-18T22:30:22.135Z,7.27
2019-01-18T22:33:05.526Z,8.27
2019-01-18T22:35:49.374Z,9.37
2019-01-18T22:38:35.971Z,7.20
2019-01-18T22:41:10.471Z,7.20
2019-01-18T22:44:09.283Z,7.67
2019-01-18T22:46:43.603Z,7.40
2019-01-18T22:49:40.352Z,6.97
2019-01-18T22:52:15.092Z,6.30
2019-01-18T22:55:01.732Z,6.73
2019-01-18T22:57:39.585Z,6.40
2019-01-18T23:00:47.793Z,6.53
2019-01-18T23:03:19.550Z,6.30
2019-01-18T23:06:06.387Z,6.70
2019-01-18T23:08:57.897Z,7.07
2019-01-18T23:11:29.539Z,9.40
2019-01-18T23:14:28.539Z,7.80
2019-01-18T23:17:29.200Z,8.53
2019-01-18T23:20:17.517Z,9.00
2019-01-18T23:22:54.906Z,7.93
2019-01-18T23:25:26.654Z,8.30
2019-01-18T23:28:13.577Z,8.10
2019-01-18T23:30:54.450Z,8.07
2019-01-18T23:33:34.820Z,8.40
2019-01-18T23:36:06.890Z,8.37
2019-01-18T23:39:12.118Z,8.17
2019-01-18T23:41:50.118Z,8.60
2019-01-18T23:44:38.671Z,8.60
2019-01-18T23:47:32.140Z,8.33
2019-01-18T23:50:03.898Z,8.00
2019-01-18T23:52:55.421Z,7.30
2019-01-18T23:55:27.255Z,7.37
2019-01-18T23:58:08.067Z,7.27
